createdAt,value
2017-06-02T02:04:57.731Z,0
2017-06-02T02:05:38.398Z,0
2017-06-02T02:06:19.022Z,0
2017-06-02T02:06:59.705Z,0
2017-06-02T02:07:40.379Z,0
2017-06-02T02:08:21.004Z,0
2017-06-02T02:09:01.676Z,0
2017-06-02T02:09:42.375Z,0
2017-06-02T02:10:23.134Z,0
2017-06-02T02:11:04.762Z,0
2017-06-02T02:11:45.346Z,0
2017-06-02T02:12:26.061Z,0
2017-06-02T02:13:06.728Z,0
2017-06-02T02:13:47.339Z,0
2017-06-02T02:14:29.085Z,0
2017-06-02T02:15:09.704Z,0
2017-06-02T02:15:50.269Z,0
2017-06-02T02:16:31.900Z,0
2017-06-02T02:17:12.569Z,0
2017-06-02T02:17:53.344Z,0
2017-06-02T02:18:33.935Z,0
2017-06-02T02:19:14.553Z,0
2017-06-02T02:19:55.226Z,0
2017-06-02T02:20:35.970Z,0
2017-06-02T02:21:16.614Z,0
2017-06-02T02:21:57.305Z,0
2017-06-02T02:22:37.925Z,0
2017-06-02T02:23:18.572Z,0
2017-06-02T02:23:59.184Z,0
2017-06-02T02:24:40.900Z,0
2017-06-02T02:25:21.541Z,0
2017-06-02T02:26:02.223Z,0
2017-06-02T02:26:42.983Z,0
2017-06-02T02:27:23.642Z,0
2017-06-02T02:28:04.296Z,0
2017-06-02T02:28:45.057Z,0
2017-06-02T02:29:25.666Z,0
2017-06-02T02:30:06.421Z,0
2017-06-02T02:30:48.139Z,0
2017-06-02T02:31:29.779Z,0
2017-06-02T02:32:11.471Z,0
2017-06-02T02:32:52.121Z,0
2017-06-02T02:33:33.797Z,0
2017-06-02T02:34:14.432Z,0
2017-06-02T02:34:55.116Z,0
2017-06-02T02:35:35.902Z,0
2017-06-02T02:36:16.525Z,0
2017-06-02T02:36:57.195Z,0
2017-06-02T02:37:37.808Z,0
2017-06-02T02:38:19.607Z,0
2017-06-02T02:39:00.255Z,0
2017-06-02T02:39:40.920Z,0
2017-06-02T02:40:21.551Z,0
2017-06-02T02:41:02.244Z,0
2017-06-02T02:41:44.019Z,0
2017-06-02T02:42:26.735Z,0
2017-06-02T02:43:07.447Z,0
2017-06-02T02:43:48.100Z,0
2017-06-02T02:44:28.780Z,0
2017-06-02T02:45:09.445Z,0
2017-06-02T02:45:50.163Z,0
2017-06-02T02:46:30.827Z,0
2017-06-02T02:47:11.555Z,0
2017-06-02T02:47:52.227Z,0
2017-06-02T02:48:32.973Z,0
2017-06-02T02:49:13.673Z,0
2017-06-02T02:49:54.304Z,0
2017-06-02T02:50:35.034Z,0
2017-06-02T02:51:15.824Z,0
2017-06-02T02:51:56.432Z,0
2017-06-02T02:52:37.067Z,0
2017-06-02T02:53:17.753Z,0
2017-06-02T02:53:58.369Z,0
2017-06-02T02:54:39.089Z,0
2017-06-02T02:55:19.825Z,0
2017-06-02T02:56:00.487Z,0
2017-06-02T02:56:41.222Z,0
2017-06-02T02:57:21.986Z,0
2017-06-02T02:58:02.765Z,0
2017-06-02T02:58:43.606Z,0
2017-06-02T02:59:24.263Z,0
2017-06-02T03:00:04.936Z,0
2017-06-02T03:00:45.660Z,0
2017-06-02T03:01:26.326Z,0
2017-06-02T03:02:07.081Z,0
2017-06-02T03:02:47.636Z,0
2017-06-02T03:03:28.390Z,0
2017-06-02T03:04:10.059Z,0
2017-06-02T03:04:50.701Z,0
2017-06-02T03:05:32.417Z,0
2017-06-02T03:06:13.146Z,0
2017-06-02T03:06:53.765Z,0
2017-06-02T03:07:34.429Z,0
2017-06-02T03:08:15.135Z,5
2017-06-02T03:08:56.884Z,5
2017-06-02T03:09:37.603Z,5
2017-06-02T03:10:18.301Z,5
2017-06-02T03:10:59.074Z,5
2017-06-02T03:11:39.822Z,5
2017-06-02T03:12:22.513Z,5
2017-06-02T03:13:03.096Z,5
2017-06-02T03:13:43.766Z,5
2017-06-02T03:14:26.486Z,5
2017-06-02T03:15:07.061Z,5
2017-06-02T03:15:47.780Z,5
2017-06-02T03:16:28.350Z,5
2017-06-02T03:17:09.072Z,5
2017-06-02T03:17:49.811Z,5
2017-06-02T03:18:30.478Z,10
2017-06-02T03:19:11.169Z,10
2017-06-02T03:19:51.876Z,10
2017-06-02T03:20:32.529Z,10
2017-06-02T03:21:13.237Z,10
2017-06-02T03:21:53.945Z,10
2017-06-02T03:22:34.671Z,10
2017-06-02T03:23:15.412Z,10
2017-06-02T03:23:56.183Z,10
2017-06-02T03:24:36.915Z,10
2017-06-02T03:25:18.752Z,15
2017-06-02T03:25:59.519Z,15
2017-06-02T03:26:40.230Z,15
2017-06-02T03:27:20.851Z,15
2017-06-02T03:28:01.492Z,15
2017-06-02T03:28:43.200Z,15
2017-06-02T03:29:23.797Z,20
2017-06-02T03:30:04.502Z,20
2017-06-02T03:30:46.156Z,20
2017-06-02T03:31:26.705Z,20
2017-06-02T03:32:08.411Z,20
2017-06-02T03:32:51.207Z,20
2017-06-02T03:33:31.892Z,20
2017-06-02T03:34:12.627Z,20
2017-06-02T03:34:53.363Z,20
2017-06-02T03:35:34.134Z,20
2017-06-02T03:36:14.872Z,20
2017-06-02T03:36:57.528Z,20
2017-06-02T03:37:39.236Z,25
2017-06-02T03:38:20.014Z,25
2017-06-02T03:39:00.763Z,25
2017-06-02T03:39:41.500Z,25
2017-06-02T03:40:22.238Z,30
2017-06-02T03:41:02.918Z,30
2017-06-02T03:41:43.581Z,30
2017-06-02T03:42:24.315Z,30
2017-06-02T03:43:05.999Z,35
2017-06-02T03:43:46.657Z,35
2017-06-02T03:44:27.304Z,35
2017-06-02T03:45:07.960Z,35
2017-06-02T03:45:48.645Z,35
2017-06-02T03:46:29.273Z,35
2017-06-02T03:47:10.968Z,35
2017-06-02T03:47:51.595Z,35
2017-06-02T03:48:32.288Z,35
2017-06-02T03:49:14.043Z,40
2017-06-02T03:49:54.819Z,40
2017-06-02T03:50:36.500Z,40
2017-06-02T03:51:18.180Z,40
2017-06-02T03:51:58.910Z,40
2017-06-02T03:52:39.680Z,40
2017-06-02T03:53:20.330Z,40
2017-06-02T03:54:01.607Z,45
2017-06-02T03:54:42.218Z,45
2017-06-02T03:55:23.935Z,45
2017-06-02T03:56:04.508Z,45
2017-06-02T03:56:45.200Z,45
2017-06-02T03:57:25.855Z,45
2017-06-02T03:58:06.633Z,45
2017-06-02T03:58:47.411Z,45
2017-06-02T03:59:28.149Z,45
2017-06-02T04:00:09.819Z,45
2017-06-02T04:00:50.533Z,50
2017-06-02T04:01:31.208Z,50
2017-06-02T04:02:11.885Z,50
2017-06-02T04:02:52.470Z,50
2017-06-02T04:03:39.756Z,55
2017-06-02T04:04:22.505Z,55
2017-06-02T04:05:03.180Z,55
2017-06-02T04:05:43.710Z,55
2017-06-02T04:06:25.317Z,60
2017-06-02T04:07:07.977Z,60
2017-06-02T04:07:48.518Z,60
2017-06-02T04:08:30.162Z,55
2017-06-02T04:09:10.810Z,55
2017-06-02T04:09:51.335Z,55
2017-06-02T04:10:33.977Z,55
2017-06-02T04:11:14.663Z,55
2017-06-02T04:11:55.182Z,55
2017-06-02T04:12:35.860Z,55
2017-06-02T04:13:17.499Z,55
2017-06-02T04:13:58.151Z,55
2017-06-02T04:14:43.823Z,55
2017-06-02T04:15:24.460Z,60
2017-06-02T06:11:17.162Z,270
2017-06-02T06:11:57.792Z,300
2017-06-02T06:12:38.346Z,300
2017-06-02T06:13:18.901Z,300
2017-06-02T06:13:59.546Z,300
2017-06-02T06:14:40.568Z,300
2017-06-02T06:15:21.156Z,300
2017-06-02T06:16:01.748Z,300
2017-06-02T06:16:42.295Z,300
2017-06-02T06:17:22.926Z,300
2017-06-02T06:18:03.669Z,305
2017-06-02T06:18:44.228Z,305
2017-06-02T06:19:24.751Z,305
2017-06-02T06:20:05.327Z,305
2017-06-02T06:20:45.906Z,305
2017-06-02T06:21:26.456Z,305
2017-06-02T06:22:07.013Z,310
2017-06-02T06:22:47.572Z,310
2017-06-02T06:23:28.210Z,310
2017-06-02T06:24:09.203Z,310
2017-06-02T06:24:49.853Z,310
2017-06-02T06:25:30.540Z,315
2017-06-02T06:26:11.093Z,310
2017-06-02T06:26:51.651Z,315
2017-06-02T06:27:32.516Z,315
2017-06-02T06:28:13.087Z,315
2017-06-02T06:28:54.484Z,315
2017-06-02T06:29:35.517Z,315
2017-06-02T06:30:16.400Z,320
2017-06-02T06:30:57.388Z,315
2017-06-02T06:31:37.956Z,315
2017-06-02T06:32:18.531Z,320
2017-06-02T06:32:59.052Z,320
2017-06-02T06:33:39.670Z,330
2017-06-02T06:34:20.260Z,330
2017-06-02T06:35:00.888Z,330
2017-06-02T06:35:42.517Z,330
2017-06-02T06:36:23.045Z,340
2017-06-02T06:37:03.580Z,345
2017-06-02T06:37:44.124Z,345
2017-06-02T06:38:24.654Z,340
2017-06-02T06:39:05.231Z,345
2017-06-02T06:39:46.229Z,345
2017-06-02T06:40:26.747Z,355
2017-06-02T06:41:07.341Z,360
2017-06-02T06:41:47.968Z,365
2017-06-02T06:42:28.529Z,370
2017-06-02T06:43:09.060Z,370
2017-06-02T06:43:49.666Z,375
2017-06-02T06:44:31.311Z,380
2017-06-02T06:45:11.861Z,400
2017-06-02T06:45:52.448Z,395
2017-06-02T06:46:33.083Z,395
2017-06-02T06:47:13.645Z,395
2017-06-02T06:47:54.294Z,395
2017-06-02T06:48:36.945Z,390
2017-06-02T06:49:17.530Z,390
2017-06-02T06:49:58.402Z,400
2017-06-02T06:50:38.925Z,400
2017-06-02T06:51:20.552Z,405
2017-06-02T06:52:01.141Z,405
2017-06-02T06:52:41.786Z,385
2017-06-02T06:53:22.528Z,375
2017-06-02T06:54:03.085Z,365
2017-06-02T06:54:43.652Z,350
2017-06-02T06:55:24.308Z,345
2017-06-02T06:56:05.883Z,345
2017-06-02T06:56:46.429Z,345
2017-06-02T06:57:28.000Z,350
2017-06-02T06:58:09.585Z,355
2017-06-02T06:58:50.131Z,360
2017-06-02T06:59:30.704Z,360
2017-06-02T07:00:11.287Z,360
2017-06-02T07:00:52.862Z,360
2017-06-02T07:01:33.449Z,355
2017-06-02T07:02:14.049Z,350
2017-06-02T07:02:54.656Z,340
2017-06-02T07:03:37.269Z,340
2017-06-02T07:04:17.924Z,330
2017-06-02T07:04:58.481Z,320
2017-06-02T07:05:39.043Z,315
2017-06-02T07:06:20.620Z,315
2017-06-02T07:07:01.179Z,315
2017-06-02T07:07:41.686Z,320
2017-06-02T07:08:22.340Z,320
2017-06-02T07:09:02.863Z,320
2017-06-02T07:09:43.441Z,320
2017-06-02T07:10:24.095Z,325
2017-06-02T07:11:04.680Z,325
2017-06-02T07:11:45.210Z,330
2017-06-02T07:12:25.724Z,330
2017-06-02T07:13:06.292Z,330
2017-06-02T07:13:46.883Z,335
2017-06-02T07:14:27.425Z,345
2017-06-02T07:15:08.054Z,350
2017-06-02T07:15:48.647Z,350
2017-06-02T07:16:29.183Z,355
2017-06-02T07:17:11.050Z,360
2017-06-02T07:17:51.608Z,360
2017-06-02T07:18:32.245Z,360
2017-06-02T07:19:12.907Z,360
2017-06-02T07:19:53.549Z,360
2017-06-02T07:20:34.094Z,360
2017-06-02T07:21:14.693Z,360
2017-06-02T07:21:55.251Z,360
2017-06-02T07:22:35.796Z,360
2017-06-02T07:23:16.408Z,360
2017-06-02T07:23:56.985Z,365
2017-06-02T07:24:37.524Z,365
2017-06-02T07:25:18.109Z,370
2017-06-02T07:25:59.744Z,370
2017-06-02T07:26:40.278Z,370
2017-06-02T11:18:08.060Z,295
2017-06-02T11:18:48.830Z,300
2017-06-02T11:19:29.481Z,300
2017-06-02T11:20:10.545Z,300
2017-06-02T11:20:51.377Z,305
2017-06-02T11:21:32.061Z,295
2017-06-02T11:22:12.635Z,295
2017-06-02T11:22:53.303Z,290
2017-06-02T11:23:33.873Z,290
2017-06-02T11:24:14.577Z,290
2017-06-02T11:24:55.184Z,300
2017-06-02T11:25:35.838Z,285
2017-06-02T11:26:16.421Z,285
2017-06-02T11:26:57.339Z,285
2017-06-02T11:27:37.999Z,285
2017-06-02T11:28:18.910Z,290
2017-06-02T11:28:59.255Z,290
2017-06-02T11:29:39.880Z,290
2017-06-02T11:30:20.419Z,290
2017-06-02T11:31:01.022Z,290
2017-06-02T11:31:41.549Z,285
2017-06-02T11:32:22.198Z,285
2017-06-02T11:33:02.709Z,285
2017-06-02T11:33:43.257Z,285
2017-06-02T11:34:23.811Z,280
2017-06-02T11:35:04.358Z,280
2017-06-02T11:35:45.022Z,275
2017-06-02T11:36:25.542Z,270
2017-06-02T11:37:06.122Z,275
2017-06-02T11:37:46.683Z,275
2017-06-02T11:38:27.514Z,275
2017-06-02T11:39:08.066Z,275
2017-06-02T11:39:48.788Z,275
2017-06-02T11:42:27.914Z,270
2017-06-02T11:43:08.985Z,270
2017-06-02T11:43:49.721Z,270
2017-06-02T11:44:30.782Z,270
2017-06-02T11:45:11.518Z,275
2017-06-02T11:45:52.622Z,270
2017-06-02T11:46:33.380Z,270
2017-06-02T11:47:14.001Z,275
2017-06-02T11:47:54.583Z,280
2017-06-02T11:48:35.301Z,285
2017-06-02T11:49:17.178Z,290
2017-06-02T11:49:57.847Z,295
2017-06-02T11:50:39.368Z,300
2017-06-02T11:51:20.359Z,295
2017-06-02T11:52:01.404Z,300
2017-06-02T11:52:41.952Z,305
2017-06-02T11:53:22.495Z,300
2017-06-02T11:54:03.192Z,305
2017-06-02T11:54:43.850Z,310
2017-06-02T11:55:24.600Z,310
2017-06-02T11:56:05.464Z,310
2017-06-02T11:56:46.110Z,310
2017-06-02T11:57:26.742Z,320
2017-06-02T11:58:07.717Z,305
2017-06-02T11:58:48.421Z,310
2017-06-02T11:59:29.280Z,310
2017-06-02T12:00:09.986Z,310
2017-06-02T12:00:50.661Z,310
2017-06-02T12:01:31.257Z,315
2017-06-02T12:02:11.828Z,315
2017-06-02T12:02:52.368Z,320
2017-06-02T12:03:33.273Z,315
2017-06-02T12:04:13.867Z,315
2017-06-02T12:04:54.630Z,315
2017-06-02T12:05:35.256Z,305
2017-06-02T12:06:15.793Z,300
2017-06-02T12:06:56.639Z,300
2017-06-02T12:07:37.521Z,300
2017-06-02T12:08:18.304Z,295
2017-06-02T12:08:59.010Z,290
2017-06-02T12:09:39.831Z,295
2017-06-02T12:10:20.575Z,295
2017-06-02T12:11:02.288Z,295
2017-06-02T12:11:43.367Z,295
2017-06-02T12:12:24.485Z,305
2017-06-02T12:13:05.138Z,280
2017-06-02T12:13:45.819Z,305
2017-06-02T12:14:26.480Z,315
2017-06-02T12:15:07.355Z,320
2017-06-02T12:15:48.206Z,315
2017-06-02T12:16:28.815Z,310
2017-06-02T12:17:09.529Z,290
2017-06-02T12:17:50.302Z,315
2017-06-02T12:18:30.995Z,340
2017-06-02T12:19:11.639Z,340
2017-06-02T12:19:52.481Z,345
2017-06-02T12:20:32.940Z,345
2017-06-02T12:21:13.530Z,340
2017-06-02T12:21:54.500Z,340
2017-06-02T12:22:35.140Z,335
2017-06-02T12:23:15.805Z,340
2017-06-02T12:23:56.408Z,335
2017-06-02T12:24:37.112Z,335
2017-06-02T12:25:17.732Z,330
2017-06-02T12:25:58.547Z,330
2017-06-02T12:26:39.283Z,325
2017-06-02T12:27:20.012Z,325
2017-06-02T12:28:00.519Z,325
2017-06-02T12:28:41.040Z,325
2017-06-02T12:29:21.865Z,325
2017-06-02T12:30:02.434Z,320
2017-06-02T12:30:43.131Z,330
2017-06-02T12:31:23.661Z,330
2017-06-02T12:32:04.455Z,330
2017-06-02T12:32:45.142Z,290
2017-06-02T12:33:26.400Z,285
2017-06-02T12:34:07.595Z,280
2017-06-02T12:34:48.883Z,275
2017-06-02T12:35:29.412Z,275
2017-06-02T12:36:10.137Z,265
2017-06-02T12:36:50.871Z,260
2017-06-02T12:37:31.714Z,255
2017-06-02T12:38:12.264Z,275
2017-06-02T12:38:53.627Z,300
2017-06-02T12:39:34.457Z,305
2017-06-02T12:40:15.429Z,305
2017-06-02T12:40:56.312Z,305
2017-06-02T12:41:36.915Z,300
2017-06-02T12:42:17.602Z,295
2017-06-02T12:42:58.136Z,290
2017-06-02T12:43:38.692Z,285
2017-06-02T12:44:19.222Z,285
2017-06-02T12:45:00.047Z,280
2017-06-02T12:45:40.773Z,280
2017-06-02T12:46:21.705Z,275
2017-06-02T12:47:02.236Z,275
2017-06-02T12:47:43.015Z,275
2017-06-02T12:48:23.721Z,275
2017-06-02T12:49:04.442Z,270
2017-06-02T12:49:44.987Z,270
2017-06-02T12:50:25.648Z,270
2017-06-02T12:51:06.175Z,270
2017-06-02T12:51:46.878Z,270
2017-06-02T12:52:27.504Z,265
2017-06-02T12:53:08.190Z,260
2017-06-02T12:53:48.757Z,260
2017-06-02T12:54:29.314Z,270
2017-06-02T12:55:10.146Z,265
2017-06-02T12:55:50.811Z,260
2017-06-02T12:56:31.510Z,265
2017-06-02T12:57:12.173Z,260
2017-06-02T12:57:53.015Z,295
2017-06-02T12:58:33.532Z,260
2017-06-02T12:59:14.269Z,265
2017-06-02T12:59:54.800Z,265
2017-06-02T13:00:35.580Z,265
2017-06-02T13:01:16.300Z,265
2017-06-02T13:01:56.865Z,265
2017-06-02T13:02:37.492Z,270
2017-06-02T13:03:17.999Z,270
2017-06-02T13:03:58.728Z,270
2017-06-02T13:04:39.404Z,275
2017-06-02T13:05:20.255Z,270
2017-06-02T13:06:00.789Z,260
2017-06-02T13:06:41.404Z,260
2017-06-02T13:07:22.243Z,260
2017-06-02T13:08:02.993Z,260
2017-06-02T13:08:43.819Z,255
2017-06-02T13:09:24.612Z,255
2017-06-02T13:10:05.325Z,255
2017-06-02T13:10:45.950Z,255
2017-06-02T13:11:27.047Z,250
2017-06-02T13:12:07.711Z,245
2017-06-02T13:12:48.464Z,250
2017-06-02T13:13:29.213Z,250
2017-06-02T13:14:09.977Z,250
2017-06-02T13:14:50.718Z,245
2017-06-02T13:15:31.719Z,250
2017-06-02T13:16:12.731Z,245
2017-06-02T13:16:54.745Z,245
2017-06-02T13:17:35.683Z,255
2017-06-02T13:18:16.500Z,250
2017-06-02T13:18:57.166Z,245
2017-06-02T13:19:37.987Z,245
2017-06-02T13:20:18.907Z,245
2017-06-02T13:20:59.700Z,255
2017-06-02T13:21:41.411Z,265
2017-06-02T13:22:22.068Z,260
2017-06-02T13:23:02.723Z,260
2017-06-02T13:23:43.370Z,260
2017-06-02T13:24:24.023Z,255
2017-06-02T13:25:04.670Z,255
2017-06-02T13:25:45.501Z,255
2017-06-02T13:26:26.209Z,255
2017-06-02T13:27:06.841Z,250
2017-06-02T13:27:47.605Z,255
2017-06-02T13:28:28.246Z,250
2017-06-02T13:29:08.812Z,255
2017-06-02T13:29:49.554Z,255
2017-06-02T13:30:30.346Z,255
2017-06-02T13:31:10.995Z,260
2017-06-02T13:31:51.718Z,255
2017-06-02T13:32:32.414Z,260
2017-06-02T13:33:12.966Z,265
2017-06-02T13:33:53.648Z,265
2017-06-02T13:34:34.374Z,260
2017-06-02T13:35:14.889Z,260
2017-06-02T13:35:55.597Z,260
2017-06-02T13:36:36.299Z,265
2017-06-02T13:37:16.987Z,265
2017-06-02T13:37:57.688Z,275
2017-06-02T13:38:38.344Z,275
2017-06-02T13:39:18.902Z,270
2017-06-02T13:39:59.560Z,270
2017-06-02T13:40:40.208Z,275
2017-06-02T13:41:20.858Z,275
2017-06-02T13:42:01.470Z,275
2017-06-02T13:42:42.143Z,275
2017-06-02T13:43:22.900Z,285
2017-06-02T13:44:03.443Z,275
2017-06-02T13:44:44.092Z,270
2017-06-02T13:45:24.845Z,270
2017-06-02T13:46:05.378Z,270
2017-06-02T13:46:46.055Z,270
2017-06-02T13:47:26.641Z,270
2017-06-02T13:48:07.468Z,265
2017-06-02T13:48:49.284Z,265
2017-06-02T13:49:29.932Z,265
2017-06-02T13:50:10.586Z,265
2017-06-02T13:50:51.238Z,270
2017-06-02T13:51:31.909Z,270
2017-06-02T13:52:12.580Z,270
2017-06-02T13:52:53.119Z,265
2017-06-02T13:53:33.851Z,270
2017-06-02T13:54:14.500Z,270
2017-06-02T13:54:55.192Z,275
2017-06-02T13:55:37.099Z,275
2017-06-02T13:56:17.702Z,295
2017-06-02T13:56:58.446Z,265
2017-06-02T13:57:39.106Z,265
2017-06-02T13:58:20.297Z,270
2017-06-02T13:59:01.021Z,270
2017-06-02T13:59:41.723Z,275
2017-06-02T14:00:22.425Z,280
2017-06-02T14:01:03.066Z,290
2017-06-02T14:01:44.091Z,300
2017-06-02T14:02:24.796Z,300
2017-06-02T14:03:05.448Z,310
2017-06-02T14:03:46.108Z,310
2017-06-02T14:04:27.791Z,280
2017-06-02T14:05:13.252Z,295
2017-06-02T14:05:55.746Z,315
2017-06-02T14:06:36.303Z,325
2017-06-02T14:07:17.177Z,335
2017-06-02T14:07:57.944Z,335
2017-06-02T14:08:39.144Z,335
2017-06-02T14:09:19.653Z,330
2017-06-02T14:10:00.609Z,325
2017-06-02T14:10:41.346Z,315
2017-06-02T14:11:21.988Z,315
2017-06-02T14:12:02.676Z,310
2017-06-02T14:12:44.318Z,315
2017-06-02T14:13:24.987Z,315
2017-06-02T14:14:05.626Z,310
2017-06-02T14:14:46.262Z,310
2017-06-02T14:15:26.935Z,300
2017-06-02T14:16:07.631Z,275
2017-06-02T14:16:48.345Z,280
2017-06-02T14:17:29.097Z,275
2017-06-02T14:18:09.632Z,270
2017-06-02T14:18:50.292Z,270
2017-06-02T14:19:30.947Z,270
2017-06-02T14:20:12.851Z,265
2017-06-02T14:20:53.594Z,265
2017-06-02T14:21:37.219Z,265
2017-06-02T14:22:18.920Z,265
2017-06-02T14:22:59.455Z,270
2017-06-02T14:23:40.190Z,270
2017-06-02T14:24:20.838Z,275
2017-06-02T14:25:01.645Z,275
2017-06-02T14:25:43.498Z,270
2017-06-02T14:26:25.213Z,285
2017-06-02T14:27:06.011Z,290
2017-06-02T14:27:46.702Z,280
2017-06-02T14:28:27.241Z,275
2017-06-02T14:29:07.920Z,270
2017-06-02T14:29:49.654Z,265
2017-06-02T14:30:30.343Z,270
2017-06-02T14:31:10.909Z,270
2017-06-02T14:31:51.582Z,270
2017-06-02T14:32:33.318Z,270
2017-06-02T14:33:14.960Z,270
2017-06-02T14:33:55.508Z,270
2017-06-02T14:34:36.171Z,270
2017-06-02T14:35:21.628Z,275
2017-06-02T14:36:02.276Z,270
2017-06-02T14:36:42.944Z,270
2017-06-02T14:37:25.550Z,270
2017-06-02T14:38:07.212Z,270
2017-06-02T14:38:47.865Z,270
2017-06-02T14:39:28.537Z,270
2017-06-02T14:40:09.171Z,265
2017-06-02T14:40:49.927Z,270
2017-06-02T14:41:30.688Z,265
2017-06-02T14:42:13.427Z,260
2017-06-02T14:43:06.701Z,260
2017-06-02T14:43:47.248Z,265
2017-06-02T14:44:28.851Z,265
2017-06-02T14:45:09.453Z,260
2017-06-02T14:45:51.052Z,260
2017-06-02T14:46:31.602Z,260
2017-06-02T14:47:13.198Z,260
2017-06-02T14:47:53.838Z,260
2017-06-02T14:48:34.550Z,260
2017-06-02T14:49:15.154Z,260
2017-06-02T14:49:55.806Z,260
2017-06-02T14:50:36.459Z,260
2017-06-02T14:51:17.112Z,260
2017-06-02T14:51:57.845Z,255
2017-06-02T14:52:39.489Z,255
2017-06-02T14:53:20.079Z,255
2017-06-02T14:54:00.629Z,260
2017-06-02T14:54:42.224Z,260
2017-06-02T14:55:22.827Z,255
2017-06-02T14:56:03.354Z,255
2017-06-02T14:56:43.956Z,255
2017-06-02T14:57:24.501Z,265
2017-06-02T14:58:05.151Z,270
2017-06-02T14:58:46.740Z,270
2017-06-02T14:59:27.275Z,270
2017-06-02T15:00:07.836Z,260
2017-06-02T15:00:48.464Z,275
2017-06-02T15:01:29.038Z,285
2017-06-02T15:02:09.567Z,280
2017-06-02T15:02:51.191Z,280
2017-06-02T15:03:32.798Z,275
2017-06-02T15:04:13.458Z,275
2017-06-02T15:04:54.115Z,275
2017-06-02T15:05:34.693Z,270
2017-06-02T15:06:16.274Z,270
2017-06-02T15:06:56.822Z,275
2017-06-02T15:07:37.506Z,280
2017-06-02T15:08:18.097Z,290
2017-06-02T15:08:59.707Z,295
2017-06-02T15:09:40.246Z,290
2017-06-02T15:10:20.792Z,295
2017-06-02T15:11:01.325Z,305
2017-06-02T15:11:41.977Z,315
2017-06-02T15:12:22.510Z,320
2017-06-02T15:13:03.045Z,320
2017-06-02T15:13:43.615Z,320
2017-06-02T15:14:24.313Z,320
2017-06-02T15:15:04.857Z,315
2017-06-02T15:15:46.374Z,290
2017-06-02T15:16:27.976Z,290
2017-06-02T15:17:08.716Z,285
2017-06-02T15:17:49.237Z,280
2017-06-02T15:18:29.883Z,275
2017-06-02T15:19:10.481Z,275
2017-06-02T15:19:51.176Z,280
2017-06-02T15:20:31.712Z,275
2017-06-02T15:21:12.334Z,265
2017-06-02T15:21:53.000Z,255
2017-06-02T15:22:33.542Z,260
2017-06-02T15:23:14.095Z,265
2017-06-02T15:23:54.782Z,265
2017-06-02T15:24:35.452Z,265
2017-06-02T15:25:16.148Z,255
2017-06-02T15:25:56.742Z,245
2017-06-02T15:26:37.365Z,245
2017-06-02T15:27:17.941Z,250
2017-06-02T15:27:58.558Z,250
2017-06-02T15:28:39.219Z,250
2017-06-02T15:29:20.887Z,250
2017-06-02T15:30:01.447Z,250
2017-06-02T15:30:42.023Z,255
2017-06-02T15:31:22.693Z,255
2017-06-02T15:32:03.227Z,255
2017-06-02T15:32:43.863Z,255
2017-06-02T15:33:24.404Z,255
2017-06-02T15:34:05.025Z,265
2017-06-02T15:34:45.710Z,270
2017-06-02T15:35:26.242Z,270
2017-06-02T15:36:06.866Z,265
2017-06-02T15:36:47.458Z,265
2017-06-02T15:37:28.064Z,260
2017-06-02T15:38:08.753Z,260
2017-06-02T15:38:49.421Z,255
2017-06-02T15:39:30.110Z,255
2017-06-02T15:40:10.627Z,255
2017-06-02T15:40:51.234Z,250
2017-06-02T15:41:31.826Z,255
2017-06-02T15:42:12.511Z,260
2017-06-02T15:42:53.175Z,260
2017-06-02T15:43:36.674Z,260
2017-06-02T15:44:16.416Z,260
2017-06-02T15:44:57.083Z,255
2017-06-02T15:45:37.727Z,260
2017-06-02T15:46:18.446Z,255
2017-06-02T15:46:59.439Z,255
2017-06-02T15:47:40.117Z,255
2017-06-02T15:48:20.856Z,250
2017-06-02T15:49:01.373Z,240
2017-06-02T15:49:42.117Z,240
2017-06-02T15:50:22.776Z,235
2017-06-02T15:51:03.308Z,235
2017-06-02T15:51:43.970Z,235
2017-06-02T15:52:24.675Z,235
2017-06-02T15:53:05.623Z,230
2017-06-02T15:53:46.186Z,230
2017-06-02T15:54:26.830Z,230
2017-06-02T15:55:07.493Z,230
2017-06-02T15:55:48.133Z,230
2017-06-02T15:56:30.027Z,235
2017-06-02T15:57:10.587Z,235
2017-06-02T15:57:51.282Z,235
2017-06-02T15:58:31.842Z,235
2017-06-02T15:59:12.421Z,235
2017-06-02T15:59:52.943Z,260
2017-06-02T16:00:33.843Z,250
2017-06-02T16:01:14.457Z,255
2017-06-02T16:01:55.018Z,275
2017-06-02T16:02:35.637Z,275
2017-06-02T16:03:16.165Z,295
2017-06-02T16:03:56.869Z,295
2017-06-02T16:04:37.493Z,295
2017-06-02T16:05:18.159Z,290
2017-06-02T16:05:58.828Z,285
2017-06-02T16:06:39.919Z,285
2017-06-02T16:07:20.467Z,285
2017-06-02T16:08:00.996Z,280
2017-06-02T16:08:41.733Z,275
2017-06-02T16:09:22.261Z,270
2017-06-02T16:10:02.935Z,265
2017-06-02T16:10:43.744Z,255
2017-06-02T16:11:24.379Z,255
2017-06-02T16:12:04.920Z,245
2017-06-02T16:12:45.668Z,240
2017-06-02T16:13:26.337Z,235
2017-06-02T16:14:06.868Z,240
2017-06-02T16:14:48.048Z,230
2017-06-02T16:15:28.588Z,225
2017-06-02T16:16:10.300Z,230
2017-06-02T16:16:50.848Z,230
2017-06-02T16:17:31.581Z,225
2017-06-02T16:18:12.250Z,225
2017-06-02T16:18:52.921Z,225
2017-06-02T16:19:33.630Z,225
2017-06-02T16:20:14.432Z,225
2017-06-02T16:20:55.231Z,225
2017-06-02T16:21:35.935Z,215
2017-06-02T16:22:16.449Z,215
2017-06-02T16:22:56.998Z,210
2017-06-02T16:23:37.659Z,205
2017-06-02T16:24:18.221Z,205
2017-06-02T16:24:58.877Z,210
2017-06-02T16:25:39.540Z,210
2017-06-02T16:26:20.051Z,210
2017-06-02T16:27:00.653Z,215
2017-06-02T16:27:41.184Z,215
2017-06-02T16:28:21.709Z,215
2017-06-02T16:29:02.232Z,220
2017-06-02T16:29:42.897Z,225
2017-06-02T16:30:23.440Z,225
2017-06-02T16:31:04.097Z,220
2017-06-02T16:31:44.618Z,220
2017-06-02T16:32:25.171Z,220
2017-06-02T16:33:05.803Z,220
2017-06-02T16:33:46.342Z,220
2017-06-02T16:34:26.861Z,220
2017-06-02T16:35:07.383Z,220
2017-06-02T16:35:48.063Z,215
2017-06-02T16:36:28.581Z,220
2017-06-02T16:37:09.232Z,220
2017-06-02T16:37:49.802Z,225
2017-06-02T16:38:30.463Z,225
2017-06-02T16:39:11.132Z,230
2017-06-02T16:39:51.761Z,230
2017-06-02T16:40:32.422Z,225
2017-06-02T16:41:13.182Z,225
2017-06-02T16:41:53.845Z,225
2017-06-02T16:42:34.524Z,220
2017-06-02T16:43:15.147Z,220
2017-06-02T16:43:55.704Z,220
2017-06-02T16:44:36.297Z,215
2017-06-02T16:45:17.199Z,215
2017-06-02T16:45:57.893Z,210
2017-06-02T16:46:38.503Z,210
2017-06-02T16:47:19.297Z,210
2017-06-02T16:47:59.951Z,205
2017-06-02T16:48:40.563Z,205
2017-06-02T16:49:21.276Z,205
2017-06-02T16:50:01.802Z,205
2017-06-02T16:50:42.517Z,205
2017-06-02T16:51:23.237Z,200
2017-06-02T16:52:03.928Z,195
2017-06-02T16:52:44.595Z,190
2017-06-02T16:53:25.234Z,185
2017-06-02T16:54:05.764Z,175
2017-06-02T16:54:46.338Z,170
2017-06-02T16:55:26.996Z,165
2017-06-02T16:56:08.010Z,160
2017-06-02T16:56:48.714Z,155
2017-06-02T16:57:29.261Z,150
2017-06-02T16:58:09.924Z,150
2017-06-02T16:58:50.457Z,150
2017-06-02T16:59:31.052Z,150
2017-06-02T17:00:11.595Z,150
2017-06-02T17:00:52.113Z,150
2017-06-02T17:01:32.717Z,150
2017-06-02T17:02:13.242Z,145
2017-06-02T17:02:53.879Z,145
2017-06-02T17:03:34.561Z,145
2017-06-02T17:04:15.185Z,145
2017-06-02T17:04:55.702Z,145
2017-06-02T17:05:36.330Z,145
2017-06-02T17:06:16.993Z,140
2017-06-02T17:06:57.664Z,140
2017-06-02T17:07:38.332Z,140
2017-06-02T17:08:18.949Z,140
2017-06-02T17:08:59.590Z,145
2017-06-02T17:09:40.234Z,145
2017-06-02T17:10:20.911Z,145
2017-06-02T17:11:01.551Z,140
2017-06-02T17:11:42.198Z,140
2017-06-02T17:12:22.716Z,140
2017-06-02T17:13:03.478Z,140
2017-06-02T17:13:44.163Z,145
2017-06-02T17:14:24.813Z,145
2017-06-02T17:15:05.468Z,150
2017-06-02T17:15:46.132Z,150
2017-06-02T17:16:26.777Z,150
2017-06-02T17:17:07.424Z,155
2017-06-02T17:17:48.022Z,160
2017-06-02T17:18:28.724Z,165
2017-06-02T17:19:09.248Z,165
2017-06-02T17:19:49.934Z,170
2017-06-02T17:20:30.634Z,170
2017-06-02T17:21:11.346Z,175
2017-06-02T17:21:51.865Z,175